sensor_id;sensor_type;location;lat;lon;timestamp;P1;durP1;ratioP1;P2;durP2;ratioP2
69226;SDS011;56334;52.398;7.552;2023-06-22T00:02:13;19.10;;;11.88;;
69226;SDS011;56334;52.398;7.552;2023-06-22T00:04:39;17.45;;;11.13;;
69226;SDS011;56334;52.398;7.552;2023-06-22T00:07:05;19.52;;;12.32;;
69226;SDS011;56334;52.398;7.552;2023-06-22T00:09:33;20.75;;;12.40;;
69226;SDS011;56334;52.398;7.552;2023-06-22T00:11:59;19.70;;;11.52;;
69226;SDS011;56334;52.398;7.552;2023-06-22T00:14:25;19.45;;;11.30;;
69226;SDS011;56334;52.398;7.552;2023-06-22T00:16:51;21.52;;;11.98;;
69226;SDS011;56334;52.398;7.552;2023-06-22T00:19:22;19.63;;;11.60;;
69226;SDS011;56334;52.398;7.552;2023-06-22T00:21:49;17.75;;;10.38;;
69226;SDS011;56334;52.398;7.552;2023-06-22T00:24:18;19.83;;;11.70;;
69226;SDS011;56334;52.398;7.552;2023-06-22T00:26:45;19.90;;;12.85;;
69226;SDS011;56334;52.398;7.552;2023-06-22T00:29:11;20.27;;;12.27;;
69226;SDS011;56334;52.398;7.552;2023-06-22T00:31:37;19.90;;;12.43;;
69226;SDS011;56334;52.398;7.552;2023-06-22T00:34:03;18.98;;;12.25;;
69226;SDS011;56334;52.398;7.552;2023-06-22T00:36:31;20.80;;;12.23;;
69226;SDS011;56334;52.398;7.552;2023-06-22T00:38:57;21.02;;;12.40;;
69226;SDS011;56334;52.398;7.552;2023-06-22T00:41:23;21.77;;;12.38;;
69226;SDS011;56334;52.398;7.552;2023-06-22T00:43:53;22.95;;;13.55;;
69226;SDS011;56334;52.398;7.552;2023-06-22T00:46:19;22.40;;;12.63;;
69226;SDS011;56334;52.398;7.552;2023-06-22T00:48:46;18.38;;;11.75;;
69226;SDS011;56334;52.398;7.552;2023-06-22T00:51:13;21.17;;;12.07;;
69226;SDS011;56334;52.398;7.552;2023-06-22T00:53:39;21.67;;;12.65;;
69226;SDS011;56334;52.398;7.552;2023-06-22T00:56:06;22.33;;;13.07;;
69226;SDS011;56334;52.398;7.552;2023-06-22T00:58:34;21.38;;;12.65;;
69226;SDS011;56334;52.398;7.552;2023-06-22T01:01:00;22.90;;;13.35;;
69226;SDS011;56334;52.398;7.552;2023-06-22T01:03:27;18.77;;;12.40;;
69226;SDS011;56334;52.398;7.552;2023-06-22T01:05:54;22.38;;;12.80;;
69226;SDS011;56334;52.398;7.552;2023-06-22T01:11:47;20.75;;;13.40;;
69226;SDS011;56334;52.398;7.552;2023-06-22T01:14:17;23.77;;;13.68;;
69226;SDS011;56334;52.398;7.552;2023-06-22T01:16:45;23.80;;;13.50;;
69226;SDS011;56334;52.398;7.552;2023-06-22T01:21:42;21.75;;;13.07;;
69226;SDS011;56334;52.398;7.552;2023-06-22T01:24:22;19.20;;;12.48;;
69226;SDS011;56334;52.398;7.552;2023-06-22T01:29:18;22.85;;;14.93;;
69226;SDS011;56334;52.398;7.552;2023-06-22T01:31:45;22.50;;;14.27;;
69226;SDS011;56334;52.398;7.552;2023-06-22T01:34:11;22.15;;;13.57;;
69226;SDS011;56334;52.398;7.552;2023-06-22T01:36:38;23.13;;;13.75;;
69226;SDS011;56334;52.398;7.552;2023-06-22T01:39:05;24.48;;;14.10;;
69226;SDS011;56334;52.398;7.552;2023-06-22T01:41:33;20.75;;;13.15;;
69226;SDS011;56334;52.398;7.552;2023-06-22T01:44:00;21.45;;;13.48;;
69226;SDS011;56334;52.398;7.552;2023-06-22T01:46:26;23.52;;;14.02;;
69226;SDS011;56334;52.398;7.552;2023-06-22T01:48:52;22.17;;;12.68;;
69226;SDS011;56334;52.398;7.552;2023-06-22T01:51:18;23.13;;;14.60;;
69226;SDS011;56334;52.398;7.552;2023-06-22T01:53:45;23.85;;;14.50;;
69226;SDS011;56334;52.398;7.552;2023-06-22T01:56:12;22.63;;;13.65;;
69226;SDS011;56334;52.398;7.552;2023-06-22T01:58:41;21.77;;;12.80;;
69226;SDS011;56334;52.398;7.552;2023-06-22T02:01:11;23.45;;;14.57;;
69226;SDS011;56334;52.398;7.552;2023-06-22T02:03:41;23.23;;;14.07;;
69226;SDS011;56334;52.398;7.552;2023-06-22T02:06:17;21.58;;;14.07;;
69226;SDS011;56334;52.398;7.552;2023-06-22T02:08:47;22.48;;;13.40;;
69226;SDS011;56334;52.398;7.552;2023-06-22T02:11:15;21.80;;;13.07;;
69226;SDS011;56334;52.398;7.552;2023-06-22T02:13:42;23.77;;;14.55;;
69226;SDS011;56334;52.398;7.552;2023-06-22T02:16:12;23.02;;;14.82;;
69226;SDS011;56334;52.398;7.552;2023-06-22T02:18:38;23.05;;;14.23;;
69226;SDS011;56334;52.398;7.552;2023-06-22T02:21:05;24.38;;;14.15;;
69226;SDS011;56334;52.398;7.552;2023-06-22T02:23:32;24.88;;;14.73;;
69226;SDS011;56334;52.398;7.552;2023-06-22T02:26:01;24.10;;;14.10;;
69226;SDS011;56334;52.398;7.552;2023-06-22T02:28:27;23.70;;;14.13;;
69226;SDS011;56334;52.398;7.552;2023-06-22T02:30:54;21.13;;;13.15;;
69226;SDS011;56334;52.398;7.552;2023-06-22T02:33:20;23.92;;;13.90;;
69226;SDS011;56334;52.398;7.552;2023-06-22T02:35:46;25.67;;;14.73;;
69226;SDS011;56334;52.398;7.552;2023-06-22T02:38:14;25.23;;;14.75;;
69226;SDS011;56334;52.398;7.552;2023-06-22T02:43:06;24.85;;;14.55;;
69226;SDS011;56334;52.398;7.552;2023-06-22T02:45:32;24.42;;;13.95;;
69226;SDS011;56334;52.398;7.552;2023-06-22T02:47:58;21.52;;;12.80;;
69226;SDS011;56334;52.398;7.552;2023-06-22T02:50:24;26.33;;;14.05;;
69226;SDS011;56334;52.398;7.552;2023-06-22T02:52:50;24.73;;;14.48;;
69226;SDS011;56334;52.398;7.552;2023-06-22T02:55:16;25.02;;;14.98;;
69226;SDS011;56334;52.398;7.552;2023-06-22T02:57:42;26.70;;;15.50;;
69226;SDS011;56334;52.398;7.552;2023-06-22T03:00:10;23.05;;;14.98;;
69226;SDS011;56334;52.398;7.552;2023-06-22T03:02:42;23.50;;;14.18;;
69226;SDS011;56334;52.398;7.552;2023-06-22T03:05:08;25.92;;;15.73;;
69226;SDS011;56334;52.398;7.552;2023-06-22T03:07:38;24.42;;;14.77;;
69226;SDS011;56334;52.398;7.552;2023-06-22T03:10:05;25.83;;;14.93;;
69226;SDS011;56334;52.398;7.552;2023-06-22T03:12:31;24.40;;;14.77;;
69226;SDS011;56334;52.398;7.552;2023-06-22T03:14:57;23.50;;;14.68;;
69226;SDS011;56334;52.398;7.552;2023-06-22T03:17:23;26.10;;;15.27;;
69226;SDS011;56334;52.398;7.552;2023-06-22T03:19:49;26.45;;;14.85;;
69226;SDS011;56334;52.398;7.552;2023-06-22T03:22:15;23.50;;;14.38;;
69226;SDS011;56334;52.398;7.552;2023-06-22T03:24:41;25.27;;;15.57;;
69226;SDS011;56334;52.398;7.552;2023-06-22T03:27:07;23.08;;;13.50;;
69226;SDS011;56334;52.398;7.552;2023-06-22T03:29:33;22.63;;;14.82;;
69226;SDS011;56334;52.398;7.552;2023-06-22T03:31:59;24.98;;;14.80;;
69226;SDS011;56334;52.398;7.552;2023-06-22T03:34:25;25.80;;;15.27;;
69226;SDS011;56334;52.398;7.552;2023-06-22T03:36:51;22.77;;;13.65;;
69226;SDS011;56334;52.398;7.552;2023-06-22T03:39:17;25.98;;;15.43;;
69226;SDS011;56334;52.398;7.552;2023-06-22T03:41:43;25.63;;;14.35;;
69226;SDS011;56334;52.398;7.552;2023-06-22T03:44:09;25.08;;;14.98;;
69226;SDS011;56334;52.398;7.552;2023-06-22T03:46:38;23.85;;;15.77;;
69226;SDS011;56334;52.398;7.552;2023-06-22T03:49:04;24.77;;;14.95;;
69226;SDS011;56334;52.398;7.552;2023-06-22T03:51:30;24.60;;;15.40;;
69226;SDS011;56334;52.398;7.552;2023-06-22T03:53:58;24.38;;;15.90;;
69226;SDS011;56334;52.398;7.552;2023-06-22T03:56:24;24.42;;;15.27;;
69226;SDS011;56334;52.398;7.552;2023-06-22T03:58:50;27.65;;;16.27;;
69226;SDS011;56334;52.398;7.552;2023-06-22T04:01:16;26.33;;;16.08;;
69226;SDS011;56334;52.398;7.552;2023-06-22T04:03:43;28.98;;;16.42;;
69226;SDS011;56334;52.398;7.552;2023-06-22T04:06:09;24.67;;;15.57;;
69226;SDS011;56334;52.398;7.552;2023-06-22T04:08:35;25.02;;;14.93;;
69226;SDS011;56334;52.398;7.552;2023-06-22T04:11:01;23.63;;;14.40;;
69226;SDS011;56334;52.398;7.552;2023-06-22T04:13:28;24.67;;;15.90;;
69226;SDS011;56334;52.398;7.552;2023-06-22T04:15:54;22.27;;;14.43;;
69226;SDS011;56334;52.398;7.552;2023-06-22T04:18:20;26.95;;;15.68;;
69226;SDS011;56334;52.398;7.552;2023-06-22T04:20:46;24.23;;;15.25;;
69226;SDS011;56334;52.398;7.552;2023-06-22T04:23:12;26.42;;;16.17;;
69226;SDS011;56334;52.398;7.552;2023-06-22T04:25:39;25.70;;;15.88;;
69226;SDS011;56334;52.398;7.552;2023-06-22T04:28:06;27.42;;;16.60;;
69226;SDS011;56334;52.398;7.552;2023-06-22T04:30:37;25.77;;;15.02;;
69226;SDS011;56334;52.398;7.552;2023-06-22T04:36:15;23.95;;;15.23;;
69226;SDS011;56334;52.398;7.552;2023-06-22T04:38:41;24.38;;;16.23;;
69226;SDS011;56334;52.398;7.552;2023-06-22T04:41:09;26.85;;;15.20;;
69226;SDS011;56334;52.398;7.552;2023-06-22T04:43:40;27.42;;;15.65;;
69226;SDS011;56334;52.398;7.552;2023-06-22T04:46:06;26.63;;;15.85;;
69226;SDS011;56334;52.398;7.552;2023-06-22T04:48:32;24.92;;;15.68;;
69226;SDS011;56334;52.398;7.552;2023-06-22T04:50:59;25.05;;;15.25;;
69226;SDS011;56334;52.398;7.552;2023-06-22T04:53:28;25.02;;;15.20;;
69226;SDS011;56334;52.398;7.552;2023-06-22T04:55:54;25.25;;;15.27;;
69226;SDS011;56334;52.398;7.552;2023-06-22T04:58:20;26.52;;;15.40;;
69226;SDS011;56334;52.398;7.552;2023-06-22T05:00:47;27.30;;;15.48;;
69226;SDS011;56334;52.398;7.552;2023-06-22T05:03:13;23.60;;;14.80;;
69226;SDS011;56334;52.398;7.552;2023-06-22T05:05:43;24.95;;;14.10;;
69226;SDS011;56334;52.398;7.552;2023-06-22T05:08:09;23.20;;;13.80;;
69226;SDS011;56334;52.398;7.552;2023-06-22T05:10:35;24.88;;;14.80;;
69226;SDS011;56334;52.398;7.552;2023-06-22T05:13:02;25.65;;;15.15;;
69226;SDS011;56334;52.398;7.552;2023-06-22T05:15:29;21.17;;;13.75;;
69226;SDS011;56334;52.398;7.552;2023-06-22T05:18:01;24.40;;;13.82;;
69226;SDS011;56334;52.398;7.552;2023-06-22T05:20:30;21.10;;;13.50;;
69226;SDS011;56334;52.398;7.552;2023-06-22T05:22:56;21.83;;;13.55;;
69226;SDS011;56334;52.398;7.552;2023-06-22T05:25:22;19.42;;;12.35;;
69226;SDS011;56334;52.398;7.552;2023-06-22T05:27:48;26.17;;;14.43;;
69226;SDS011;56334;52.398;7.552;2023-06-22T05:30:15;19.38;;;12.48;;
69226;SDS011;56334;52.398;7.552;2023-06-22T05:32:42;22.83;;;12.90;;
69226;SDS011;56334;52.398;7.552;2023-06-22T05:35:09;22.52;;;13.98;;
69226;SDS011;56334;52.398;7.552;2023-06-22T05:37:35;20.98;;;13.63;;
69226;SDS011;56334;52.398;7.552;2023-06-22T05:40:01;21.85;;;13.55;;
69226;SDS011;56334;52.398;7.552;2023-06-22T05:42:28;22.27;;;12.80;;
69226;SDS011;56334;52.398;7.552;2023-06-22T05:47:20;18.00;;;11.65;;
69226;SDS011;56334;52.398;7.552;2023-06-22T05:49:47;21.27;;;12.80;;
69226;SDS011;56334;52.398;7.552;2023-06-22T05:52:13;19.42;;;12.30;;
69226;SDS011;56334;52.398;7.552;2023-06-22T05:54:39;21.63;;;12.23;;
69226;SDS011;56334;52.398;7.552;2023-06-22T05:57:06;22.90;;;12.73;;
69226;SDS011;56334;52.398;7.552;2023-06-22T05:59:32;18.00;;;11.02;;
69226;SDS011;56334;52.398;7.552;2023-06-22T06:01:58;19.70;;;11.25;;
69226;SDS011;56334;52.398;7.552;2023-06-22T06:04:24;19.67;;;11.15;;
69226;SDS011;56334;52.398;7.552;2023-06-22T06:06:50;20.27;;;11.43;;
69226;SDS011;56334;52.398;7.552;2023-06-22T06:09:20;18.38;;;10.80;;
69226;SDS011;56334;52.398;7.552;2023-06-22T06:11:46;16.63;;;10.30;;
69226;SDS011;56334;52.398;7.552;2023-06-22T06:17:08;20.08;;;10.63;;
69226;SDS011;56334;52.398;7.552;2023-06-22T06:19:35;17.33;;;10.45;;
69226;SDS011;56334;52.398;7.552;2023-06-22T06:22:01;18.65;;;10.73;;
69226;SDS011;56334;52.398;7.552;2023-06-22T06:24:27;18.88;;;11.13;;
69226;SDS011;56334;52.398;7.552;2023-06-22T06:26:53;17.50;;;8.98;;
69226;SDS011;56334;52.398;7.552;2023-06-22T06:29:19;17.33;;;10.35;;
69226;SDS011;56334;52.398;7.552;2023-06-22T06:31:45;14.88;;;8.55;;
69226;SDS011;56334;52.398;7.552;2023-06-22T06:34:11;15.13;;;8.52;;
69226;SDS011;56334;52.398;7.552;2023-06-22T06:36:37;17.08;;;9.07;;
69226;SDS011;56334;52.398;7.552;2023-06-22T06:39:03;14.77;;;7.82;;
69226;SDS011;56334;52.398;7.552;2023-06-22T06:41:29;13.45;;;8.30;;
69226;SDS011;56334;52.398;7.552;2023-06-22T06:43:55;15.13;;;8.68;;
69226;SDS011;56334;52.398;7.552;2023-06-22T06:46:21;13.48;;;8.07;;
69226;SDS011;56334;52.398;7.552;2023-06-22T06:48:47;14.57;;;8.07;;
69226;SDS011;56334;52.398;7.552;2023-06-22T06:51:13;13.43;;;7.20;;
69226;SDS011;56334;52.398;7.552;2023-06-22T06:53:39;14.63;;;8.05;;
69226;SDS011;56334;52.398;7.552;2023-06-22T06:56:05;14.27;;;7.18;;
69226;SDS011;56334;52.398;7.552;2023-06-22T06:58:31;13.45;;;7.40;;
69226;SDS011;56334;52.398;7.552;2023-06-22T07:00:57;12.73;;;7.07;;
69226;SDS011;56334;52.398;7.552;2023-06-22T07:03:24;12.48;;;6.38;;
69226;SDS011;56334;52.398;7.552;2023-06-22T07:05:50;12.07;;;6.07;;
69226;SDS011;56334;52.398;7.552;2023-06-22T07:08:16;15.00;;;7.05;;
69226;SDS011;56334;52.398;7.552;2023-06-22T07:10:42;11.93;;;6.68;;
69226;SDS011;56334;52.398;7.552;2023-06-22T07:13:08;13.13;;;7.30;;
69226;SDS011;56334;52.398;7.552;2023-06-22T07:15:36;12.35;;;6.55;;
69226;SDS011;56334;52.398;7.552;2023-06-22T07:18:02;12.20;;;7.25;;
69226;SDS011;56334;52.398;7.552;2023-06-22T07:20:28;14.27;;;6.68;;
69226;SDS011;56334;52.398;7.552;2023-06-22T07:22:54;12.85;;;6.53;;
69226;SDS011;56334;52.398;7.552;2023-06-22T07:25:20;11.52;;;6.13;;
69226;SDS011;56334;52.398;7.552;2023-06-22T07:27:56;11.68;;;6.60;;
69226;SDS011;56334;52.398;7.552;2023-06-22T07:30:22;12.80;;;6.60;;
69226;SDS011;56334;52.398;7.552;2023-06-22T07:32:48;12.02;;;6.78;;
69226;SDS011;56334;52.398;7.552;2023-06-22T07:35:14;13.77;;;7.32;;
69226;SDS011;56334;52.398;7.552;2023-06-22T07:37:41;11.73;;;7.05;;
69226;SDS011;56334;52.398;7.552;2023-06-22T07:42:34;12.60;;;7.20;;
69226;SDS011;56334;52.398;7.552;2023-06-22T07:45:02;12.70;;;6.90;;
69226;SDS011;56334;52.398;7.552;2023-06-22T07:47:28;12.75;;;7.15;;
69226;SDS011;56334;52.398;7.552;2023-06-22T07:50:11;11.73;;;6.35;;
69226;SDS011;56334;52.398;7.552;2023-06-22T07:52:37;13.93;;;7.60;;
69226;SDS011;56334;52.398;7.552;2023-06-22T07:55:03;16.25;;;8.40;;
69226;SDS011;56334;52.398;7.552;2023-06-22T07:57:29;13.25;;;7.40;;
69226;SDS011;56334;52.398;7.552;2023-06-22T07:59:59;12.50;;;6.88;;
69226;SDS011;56334;52.398;7.552;2023-06-22T08:02:26;14.82;;;7.75;;
69226;SDS011;56334;52.398;7.552;2023-06-22T08:04:52;12.05;;;6.35;;
69226;SDS011;56334;52.398;7.552;2023-06-22T08:07:18;18.60;;;7.95;;
69226;SDS011;56334;52.398;7.552;2023-06-22T08:09:47;15.27;;;8.75;;
69226;SDS011;56334;52.398;7.552;2023-06-22T08:12:14;14.85;;;8.10;;
69226;SDS011;56334;52.398;7.552;2023-06-22T08:14:41;13.95;;;7.63;;
69226;SDS011;56334;52.398;7.552;2023-06-22T08:17:09;14.45;;;7.50;;
69226;SDS011;56334;52.398;7.552;2023-06-22T08:19:35;13.73;;;7.30;;
69226;SDS011;56334;52.398;7.552;2023-06-22T08:22:02;14.40;;;7.55;;
69226;SDS011;56334;52.398;7.552;2023-06-22T08:24:28;14.43;;;7.80;;
69226;SDS011;56334;52.398;7.552;2023-06-22T08:26:55;13.60;;;7.50;;
69226;SDS011;56334;52.398;7.552;2023-06-22T08:31:47;15.18;;;8.38;;
69226;SDS011;56334;52.398;7.552;2023-06-22T08:34:13;13.07;;;7.90;;
69226;SDS011;56334;52.398;7.552;2023-06-22T08:36:39;15.48;;;8.52;;
69226;SDS011;56334;52.398;7.552;2023-06-22T08:39:09;13.30;;;7.30;;
69226;SDS011;56334;52.398;7.552;2023-06-22T08:41:36;15.93;;;8.90;;
69226;SDS011;56334;52.398;7.552;2023-06-22T08:44:02;15.23;;;9.05;;
69226;SDS011;56334;52.398;7.552;2023-06-22T08:46:29;13.80;;;8.00;;
69226;SDS011;56334;52.398;7.552;2023-06-22T08:48:57;12.55;;;7.05;;
69226;SDS011;56334;52.398;7.552;2023-06-22T08:51:23;13.57;;;7.45;;
69226;SDS011;56334;52.398;7.552;2023-06-22T08:56:15;16.15;;;8.32;;
69226;SDS011;56334;52.398;7.552;2023-06-22T08:58:42;16.15;;;9.73;;
69226;SDS011;56334;52.398;7.552;2023-06-22T09:01:08;15.25;;;8.50;;
69226;SDS011;56334;52.398;7.552;2023-06-22T09:03:34;14.68;;;8.75;;
69226;SDS011;56334;52.398;7.552;2023-06-22T09:06:02;14.43;;;8.52;;
69226;SDS011;56334;52.398;7.552;2023-06-22T09:08:28;15.85;;;8.85;;
69226;SDS011;56334;52.398;7.552;2023-06-22T09:10:54;15.27;;;8.13;;
69226;SDS011;56334;52.398;7.552;2023-06-22T09:13:20;15.23;;;8.55;;
69226;SDS011;56334;52.398;7.552;2023-06-22T09:15:47;16.80;;;8.27;;
69226;SDS011;56334;52.398;7.552;2023-06-22T09:18:13;15.45;;;8.23;;
69226;SDS011;56334;52.398;7.552;2023-06-22T09:20:39;14.95;;;8.68;;
69226;SDS011;56334;52.398;7.552;2023-06-22T09:23:05;15.18;;;9.27;;
69226;SDS011;56334;52.398;7.552;2023-06-22T09:25:32;13.70;;;8.00;;
69226;SDS011;56334;52.398;7.552;2023-06-22T09:27:58;15.52;;;8.95;;
69226;SDS011;56334;52.398;7.552;2023-06-22T09:30:24;14.43;;;7.72;;
69226;SDS011;56334;52.398;7.552;2023-06-22T09:32:50;18.15;;;9.48;;
69226;SDS011;56334;52.398;7.552;2023-06-22T09:35:17;14.07;;;7.95;;
69226;SDS011;56334;52.398;7.552;2023-06-22T09:37:43;15.75;;;8.95;;
69226;SDS011;56334;52.398;7.552;2023-06-22T09:40:10;16.20;;;10.20;;
69226;SDS011;56334;52.398;7.552;2023-06-22T09:42:38;16.60;;;9.57;;
69226;SDS011;56334;52.398;7.552;2023-06-22T09:45:04;16.38;;;8.75;;
69226;SDS011;56334;52.398;7.552;2023-06-22T09:47:30;14.98;;;8.65;;
69226;SDS011;56334;52.398;7.552;2023-06-22T09:52:24;14.80;;;8.57;;
69226;SDS011;56334;52.398;7.552;2023-06-22T09:54:50;14.50;;;8.85;;
69226;SDS011;56334;52.398;7.552;2023-06-22T09:57:16;14.27;;;8.73;;
69226;SDS011;56334;52.398;7.552;2023-06-22T09:59:42;15.32;;;9.05;;
69226;SDS011;56334;52.398;7.552;2023-06-22T10:02:08;14.90;;;8.07;;
69226;SDS011;56334;52.398;7.552;2023-06-22T10:07:01;16.48;;;9.57;;
69226;SDS011;56334;52.398;7.552;2023-06-22T10:11:53;15.23;;;7.90;;
69226;SDS011;56334;52.398;7.552;2023-06-22T10:14:19;14.73;;;8.98;;
69226;SDS011;56334;52.398;7.552;2023-06-22T10:16:45;14.40;;;8.85;;
69226;SDS011;56334;52.398;7.552;2023-06-22T10:19:11;13.90;;;8.40;;
69226;SDS011;56334;52.398;7.552;2023-06-22T10:21:37;15.77;;;8.90;;
69226;SDS011;56334;52.398;7.552;2023-06-22T10:24:03;16.02;;;9.75;;
69226;SDS011;56334;52.398;7.552;2023-06-22T10:26:32;15.50;;;9.27;;
69226;SDS011;56334;52.398;7.552;2023-06-22T10:28:59;15.82;;;9.38;;
69226;SDS011;56334;52.398;7.552;2023-06-22T10:31:25;14.73;;;8.10;;
69226;SDS011;56334;52.398;7.552;2023-06-22T10:33:52;16.10;;;8.73;;
69226;SDS011;56334;52.398;7.552;2023-06-22T10:36:18;15.23;;;9.00;;
69226;SDS011;56334;52.398;7.552;2023-06-22T10:38:44;16.17;;;8.90;;
69226;SDS011;56334;52.398;7.552;2023-06-22T10:41:12;18.30;;;9.88;;
69226;SDS011;56334;52.398;7.552;2023-06-22T10:43:38;17.13;;;10.20;;
69226;SDS011;56334;52.398;7.552;2023-06-22T10:46:04;18.00;;;9.48;;
69226;SDS011;56334;52.398;7.552;2023-06-22T10:48:30;14.57;;;8.57;;
69226;SDS011;56334;52.398;7.552;2023-06-22T10:50:56;16.13;;;9.48;;
69226;SDS011;56334;52.398;7.552;2023-06-22T10:53:22;17.05;;;8.35;;
69226;SDS011;56334;52.398;7.552;2023-06-22T10:55:48;15.32;;;8.70;;
69226;SDS011;56334;52.398;7.552;2023-06-22T10:58:14;15.75;;;9.48;;
69226;SDS011;56334;52.398;7.552;2023-06-22T11:00:40;16.13;;;8.40;;
69226;SDS011;56334;52.398;7.552;2023-06-22T11:03:06;15.82;;;8.85;;
69226;SDS011;56334;52.398;7.552;2023-06-22T11:05:32;17.38;;;9.48;;
69226;SDS011;56334;52.398;7.552;2023-06-22T11:07:58;14.73;;;8.25;;
69226;SDS011;56334;52.398;7.552;2023-06-22T11:10:24;16.77;;;9.18;;
69226;SDS011;56334;52.398;7.552;2023-06-22T11:12:52;15.23;;;9.07;;
69226;SDS011;56334;52.398;7.552;2023-06-22T11:15:18;14.25;;;8.52;;
69226;SDS011;56334;52.398;7.552;2023-06-22T11:17:44;15.95;;;9.75;;
69226;SDS011;56334;52.398;7.552;2023-06-22T11:20:11;13.77;;;7.95;;
69226;SDS011;56334;52.398;7.552;2023-06-22T11:22:38;16.95;;;9.65;;
69226;SDS011;56334;52.398;7.552;2023-06-22T11:25:04;14.70;;;8.80;;
69226;SDS011;56334;52.398;7.552;2023-06-22T11:27:31;14.40;;;8.70;;
69226;SDS011;56334;52.398;7.552;2023-06-22T11:29:57;15.43;;;9.43;;
69226;SDS011;56334;52.398;7.552;2023-06-22T11:32:23;15.48;;;8.75;;
69226;SDS011;56334;52.398;7.552;2023-06-22T11:34:49;15.32;;;8.60;;
69226;SDS011;56334;52.398;7.552;2023-06-22T11:37:16;14.80;;;8.65;;
69226;SDS011;56334;52.398;7.552;2023-06-22T11:39:42;15.50;;;8.35;;
69226;SDS011;56334;52.398;7.552;2023-06-22T11:42:08;16.92;;;9.40;;
69226;SDS011;56334;52.398;7.552;2023-06-22T11:44:34;14.38;;;8.43;;
69226;SDS011;56334;52.398;7.552;2023-06-22T11:47:00;15.68;;;9.18;;
69226;SDS011;56334;52.398;7.552;2023-06-22T11:49:28;15.57;;;8.65;;
69226;SDS011;56334;52.398;7.552;2023-06-22T11:51:54;15.07;;;9.02;;
69226;SDS011;56334;52.398;7.552;2023-06-22T11:54:29;14.98;;;9.23;;
69226;SDS011;56334;52.398;7.552;2023-06-22T11:56:55;15.68;;;9.05;;
69226;SDS011;56334;52.398;7.552;2023-06-22T11:59:21;14.70;;;8.77;;
69226;SDS011;56334;52.398;7.552;2023-06-22T12:01:47;16.77;;;9.85;;
69226;SDS011;56334;52.398;7.552;2023-06-22T12:04:15;14.90;;;8.88;;
69226;SDS011;56334;52.398;7.552;2023-06-22T12:06:41;15.65;;;9.35;;
69226;SDS011;56334;52.398;7.552;2023-06-22T12:09:08;15.90;;;9.25;;
69226;SDS011;56334;52.398;7.552;2023-06-22T12:11:35;13.93;;;8.35;;
69226;SDS011;56334;52.398;7.552;2023-06-22T12:14:01;15.50;;;8.90;;
69226;SDS011;56334;52.398;7.552;2023-06-22T12:16:28;14.02;;;8.30;;
69226;SDS011;56334;52.398;7.552;2023-06-22T12:18:54;17.65;;;9.90;;
69226;SDS011;56334;52.398;7.552;2023-06-22T12:21:20;15.13;;;8.77;;
69226;SDS011;56334;52.398;7.552;2023-06-22T12:23:46;14.30;;;8.73;;
69226;SDS011;56334;52.398;7.552;2023-06-22T12:26:12;15.68;;;8.73;;
69226;SDS011;56334;52.398;7.552;2023-06-22T12:28:38;17.00;;;9.60;;
69226;SDS011;56334;52.398;7.552;2023-06-22T12:31:04;14.15;;;9.02;;
69226;SDS011;56334;52.398;7.552;2023-06-22T12:33:30;16.98;;;9.85;;
69226;SDS011;56334;52.398;7.552;2023-06-22T12:35:56;15.73;;;9.68;;
69226;SDS011;56334;52.398;7.552;2023-06-22T12:40:50;16.63;;;9.32;;
69226;SDS011;56334;52.398;7.552;2023-06-22T12:43:16;15.98;;;9.13;;
69226;SDS011;56334;52.398;7.552;2023-06-22T12:45:42;17.65;;;9.75;;
69226;SDS011;56334;52.398;7.552;2023-06-22T12:48:08;16.25;;;10.30;;
69226;SDS011;56334;52.398;7.552;2023-06-22T12:50:34;15.65;;;9.38;;
69226;SDS011;56334;52.398;7.552;2023-06-22T12:53:00;16.80;;;9.77;;
69226;SDS011;56334;52.398;7.552;2023-06-22T12:55:28;15.25;;;9.95;;
69226;SDS011;56334;52.398;7.552;2023-06-22T12:57:54;15.20;;;9.25;;
69226;SDS011;56334;52.398;7.552;2023-06-22T13:00:20;15.82;;;9.77;;
69226;SDS011;56334;52.398;7.552;2023-06-22T13:05:12;17.58;;;9.48;;
69226;SDS011;56334;52.398;7.552;2023-06-22T13:07:38;17.58;;;10.15;;
69226;SDS011;56334;52.398;7.552;2023-06-22T13:10:04;15.15;;;9.05;;
69226;SDS011;56334;52.398;7.552;2023-06-22T13:14:57;16.95;;;10.02;;
69226;SDS011;56334;52.398;7.552;2023-06-22T13:17:23;16.00;;;9.63;;
69226;SDS011;56334;52.398;7.552;2023-06-22T13:19:49;17.17;;;10.20;;
69226;SDS011;56334;52.398;7.552;2023-06-22T13:22:25;18.42;;;12.02;;
69226;SDS011;56334;52.398;7.552;2023-06-22T13:24:53;16.83;;;10.85;;
69226;SDS011;56334;52.398;7.552;2023-06-22T13:27:19;22.83;;;11.18;;
69226;SDS011;56334;52.398;7.552;2023-06-22T13:29:45;20.17;;;11.60;;
69226;SDS011;56334;52.398;7.552;2023-06-22T13:32:16;19.58;;;12.25;;
69226;SDS011;56334;52.398;7.552;2023-06-22T13:34:43;18.38;;;11.40;;
69226;SDS011;56334;52.398;7.552;2023-06-22T13:37:09;18.85;;;12.02;;
69226;SDS011;56334;52.398;7.552;2023-06-22T13:39:35;18.20;;;11.40;;
69226;SDS011;56334;52.398;7.552;2023-06-22T13:42:05;18.38;;;10.90;;
69226;SDS011;56334;52.398;7.552;2023-06-22T13:44:31;17.90;;;12.25;;
69226;SDS011;56334;52.398;7.552;2023-06-22T13:46:57;18.55;;;12.02;;
69226;SDS011;56334;52.398;7.552;2023-06-22T13:49:23;19.38;;;12.00;;
69226;SDS011;56334;52.398;7.552;2023-06-22T13:51:49;17.58;;;11.18;;
69226;SDS011;56334;52.398;7.552;2023-06-22T13:54:15;18.63;;;12.43;;
69226;SDS011;56334;52.398;7.552;2023-06-22T13:59:08;19.08;;;12.25;;
69226;SDS011;56334;52.398;7.552;2023-06-22T14:01:36;21.15;;;12.15;;
69226;SDS011;56334;52.398;7.552;2023-06-22T14:04:05;21.02;;;13.02;;
69226;SDS011;56334;52.398;7.552;2023-06-22T14:06:31;19.85;;;13.18;;
69226;SDS011;56334;52.398;7.552;2023-06-22T14:08:57;22.27;;;12.40;;
69226;SDS011;56334;52.398;7.552;2023-06-22T14:11:24;20.08;;;12.48;;
69226;SDS011;56334;52.398;7.552;2023-06-22T14:13:50;22.95;;;13.77;;
69226;SDS011;56334;52.398;7.552;2023-06-22T14:16:16;19.30;;;11.82;;
69226;SDS011;56334;52.398;7.552;2023-06-22T14:18:44;20.70;;;12.73;;
69226;SDS011;56334;52.398;7.552;2023-06-22T14:21:10;19.08;;;12.30;;
69226;SDS011;56334;52.398;7.552;2023-06-22T14:23:36;22.75;;;13.90;;
69226;SDS011;56334;52.398;7.552;2023-06-22T14:26:03;22.02;;;14.55;;
69226;SDS011;56334;52.398;7.552;2023-06-22T14:28:29;23.05;;;14.02;;
69226;SDS011;56334;52.398;7.552;2023-06-22T14:30:55;22.30;;;13.90;;
69226;SDS011;56334;52.398;7.552;2023-06-22T14:33:21;21.58;;;14.73;;
69226;SDS011;56334;52.398;7.552;2023-06-22T14:35:47;21.90;;;13.65;;
69226;SDS011;56334;52.398;7.552;2023-06-22T14:38:14;23.20;;;14.88;;
69226;SDS011;56334;52.398;7.552;2023-06-22T14:40:40;23.25;;;14.77;;
69226;SDS011;56334;52.398;7.552;2023-06-22T14:43:06;21.95;;;14.90;;
69226;SDS011;56334;52.398;7.552;2023-06-22T14:45:32;22.90;;;14.23;;
69226;SDS011;56334;52.398;7.552;2023-06-22T14:47:58;21.65;;;15.23;;
69226;SDS011;56334;52.398;7.552;2023-06-22T14:50:24;22.33;;;14.48;;
69226;SDS011;56334;52.398;7.552;2023-06-22T14:52:51;24.10;;;14.15;;
69226;SDS011;56334;52.398;7.552;2023-06-22T14:55:17;21.90;;;14.57;;
69226;SDS011;56334;52.398;7.552;2023-06-22T14:57:43;20.35;;;13.50;;
69226;SDS011;56334;52.398;7.552;2023-06-22T15:00:10;22.25;;;14.25;;
69226;SDS011;56334;52.398;7.552;2023-06-22T15:02:36;20.95;;;14.85;;
69226;SDS011;56334;52.398;7.552;2023-06-22T15:05:02;20.90;;;14.23;;
69226;SDS011;56334;52.398;7.552;2023-06-22T15:09:54;20.02;;;13.20;;